Acequia, Idaho
Current Conditions -  °F | °C
As of 1:53 AM on Monday 20 Oct 2014 (Local Time) from KBYI Reporting Station
Clear Clear  
Wind Chill: 44°   Ceiling: Unl
Heat Index: 46°   Visibility: 10mi
Dew Point: 35°   Wind: 5mph
Humidity: 66%   Direction: 100°E
Pressure: 29.98"   Gusts: NA
Location:  42.6416°N, 113.637°W
Report Text: KBYI 200753Z AUTO 10004KT 10SM CLR 08/02 A2998 RMK AO2 SLP123 T00780017
Loading
Personal Weather Stations






























Interactive Weather Map
Tropical Storm Tracking
New forecast layout! Learn more

10-Day Weather Forecast

Advertisements
Track Severe Weather on mobile